Time;durP1;ratioP1;P1;durP2;ratioP2;P2;SDS_P1;SDS_P2;PMS_P1;PMS_P2;Temp;Humidity;BMP_temperature;BMP_pressure;BME280_temperature;BME280_humidity;BME280_pressure;Samples;Min_cycle;Max_cycle;Signal;HPM_P1;HPM_P2
2020/12/05 00:01:03;;;;;;;11.35;8.00;;;5.10;88.50;;;;;;5021423;28;20474;-52
2020/12/05 00:03:29;;;;;;;10.18;7.43;;;5.00;89.30;;;;;;5029987;28;20043;-52
2020/12/05 00:05:54;;;;;;;10.82;6.95;;;5.00;88.90;;;;;;5025839;28;20102;-51
2020/12/05 00:08:20;;;;;;;10.93;7.22;;;5.00;89.10;;;;;;5030185;28;20045;-51
2020/12/05 00:10:46;;;;;;;10.80;7.75;;;5.00;88.90;;;;;;5026181;28;20064;-52
2020/12/05 00:13:11;;;;;;;12.23;7.75;;;5.00;88.80;;;;;;5014174;28;20480;-52
2020/12/05 00:15:57;;;;;;;11.02;7.25;;;4.90;88.70;;;;;;5010961;28;20560;-53
2020/12/05 00:18:22;;;;;;;12.60;7.85;;;4.80;88.80;;;;;;5015195;28;20050;-52
2020/12/05 00:20:48;;;;;;;13.70;8.15;;;4.80;89.10;;;;;;5015816;28;20141;-52
2020/12/05 00:23:14;;;;;;;10.88;7.80;;;4.80;89.50;;;;;;5017696;28;20112;-54
2020/12/05 00:25:40;;;;;;;10.63;7.38;;;4.70;89.40;;;;;;5020247;28;20050;-52
2020/12/05 00:28:06;;;;;;;11.38;8.52;;;4.60;89.50;;;;;;5020346;28;20601;-51
2020/12/05 00:30:33;;;;;;;11.48;7.90;;;4.60;89.80;;;;;;5017673;28;20168;-52
2020/12/05 00:33:00;;;;;;;10.40;7.57;;;4.50;89.80;;;;;;5018960;28;20522;-51
2020/12/05 00:35:26;;;;;;;11.40;7.85;;;4.50;90.00;;;;;;5019008;28;20042;-51
2020/12/05 00:37:52;;;;;;;12.50;7.47;;;4.50;89.80;;;;;;5018863;28;20038;-50
2020/12/05 00:40:18;;;;;;;13.60;8.00;;;4.60;89.50;;;;;;5017390;28;20045;-51
2020/12/05 00:42:44;;;;;;;10.57;7.88;;;4.60;89.60;;;;;;5017034;28;20058;-54
2020/12/05 00:45:09;;;;;;;10.05;7.88;;;4.50;89.50;;;;;;5014205;28;20057;-50
2020/12/05 00:47:35;;;;;;;12.73;8.48;;;4.50;89.50;;;;;;5019480;28;20038;-52
2020/12/05 00:50:21;;;;;;;12.27;8.10;;;4.40;89.70;;;;;;5006574;28;20463;-54
2020/12/05 00:52:46;;;;;;;11.57;8.40;;;4.30;90.20;;;;;;5017701;28;20494;-53
2020/12/05 00:55:12;;;;;;;9.93;8.02;;;4.40;90.20;;;;;;5021947;28;20537;-51
2020/12/05 00:57:38;;;;;;;10.52;8.23;;;4.40;90.20;;;;;;5020053;28;20442;-54
2020/12/05 01:00:23;;;;;;;10.35;8.02;;;4.40;90.10;;;;;;5004082;28;20073;-53
2020/12/05 01:02:49;;;;;;;12.93;7.60;;;4.40;90.10;;;;;;5019673;28;20072;-54
2020/12/05 01:05:15;;;;;;;13.40;7.72;;;4.50;90.10;;;;;;5020024;28;20515;-51
2020/12/05 01:07:41;;;;;;;10.63;7.68;;;4.40;89.90;;;;;;5029648;28;20045;-52
2020/12/05 01:10:26;;;;;;;10.13;7.13;;;4.40;89.90;;;;;;5003974;28;20050;-50
2020/12/05 01:12:52;;;;;;;9.55;7.72;;;4.40;89.90;;;;;;5013966;28;20042;-50
2020/12/05 01:15:18;;;;;;;11.63;7.97;;;4.40;89.90;;;;;;5022410;28;20040;-51
2020/12/05 01:17:43;;;;;;;12.93;7.63;;;4.40;89.20;;;;;;5024247;28;20068;-54
2020/12/05 01:20:29;;;;;;;10.15;7.80;;;4.30;89.60;;;;;;5012828;28;20060;-53
2020/12/05 01:22:55;;;;;;;12.30;8.10;;;4.10;90.10;;;;;;5030886;28;20541;-50
2020/12/05 01:25:40;;;;;;;9.88;6.78;;;4.10;90.20;;;;;;5004681;28;20478;-54
2020/12/05 01:28:06;;;;;;;11.25;7.60;;;4.00;90.10;;;;;;5011636;28;20072;-54
2020/12/05 01:30:51;;;;;;;11.13;7.50;;;4.00;90.20;;;;;;5016275;28;20053;-53
2020/12/05 01:33:17;;;;;;;12.27;7.88;;;3.90;90.20;;;;;;5026377;28;20625;-54
2020/12/05 01:35:42;;;;;;;9.60;7.43;;;3.90;90.40;;;;;;5012885;28;20033;-54
2020/12/05 01:38:08;;;;;;;12.30;8.55;;;3.80;90.30;;;;;;5021724;28;20041;-54
2020/12/05 01:40:33;;;;;;;12.95;8.93;;;3.80;90.30;;;;;;5020838;28;20045;-53
2020/12/05 01:43:00;;;;;;;12.63;7.78;;;3.90;90.60;;;;;;5021113;28;20091;-54
2020/12/05 01:45:26;;;;;;;12.10;8.10;;;3.90;90.40;;;;;;5012936;28;20471;-54
2020/12/05 01:47:52;;;;;;;10.80;7.82;;;3.80;90.40;;;;;;5024443;28;20097;-54
2020/12/05 01:50:17;;;;;;;11.00;7.13;;;3.70;90.50;;;;;;5028213;28;20500;-54
2020/12/05 01:52:44;;;;;;;9.18;6.22;;;3.70;90.30;;;;;;5020220;28;20860;-51
2020/12/05 01:55:30;;;;;;;11.20;7.45;;;3.60;90.10;;;;;;5009653;28;20099;-52
2020/12/05 01:57:55;;;;;;;10.40;7.00;;;3.50;90.20;;;;;;5027917;28;20437;-50
2020/12/05 02:00:43;;;;;;;10.60;7.30;;;3.50;90.30;;;;;;4998546;28;20060;-54
2020/12/05 02:03:08;;;;;;;10.57;7.18;;;3.40;90.40;;;;;;5021210;28;20047;-50
2020/12/05 02:06:00;;;;;;;10.75;7.25;;;3.60;90.40;;;;;;4997584;28;20441;-50
2020/12/05 02:08:33;;;;;;;10.60;7.25;;;3.30;90.20;;;;;;5025449;28;20335;-54
2020/12/05 02:11:02;;;;;;;11.77;7.97;;;3.20;90.30;;;;;;5000756;28;20034;-50
2020/12/05 02:13:36;;;;;;;11.57;8.15;;;3.20;90.50;;;;;;5017555;28;20046;-53
2020/12/05 02:16:03;;;;;;;12.85;8.57;;;3.20;90.50;;;;;;5020295;28;20069;-51
2020/12/05 02:18:52;;;;;;;11.90;8.15;;;3.20;90.60;;;;;;5015522;28;20053;-55
2020/12/05 02:21:20;;;;;;;15.10;8.65;;;3.20;90.80;;;;;;5029427;28;20081;-53
2020/12/05 02:23:46;;;;;;;12.18;8.35;;;3.30;90.70;;;;;;5012757;28;20100;-52
2020/12/05 02:26:13;;;;;;;11.68;8.70;;;3.30;90.70;;;;;;5010729;28;20405;-51
2020/12/05 02:28:39;;;;;;;12.63;8.25;;;3.30;90.80;;;;;;5013873;28;20121;-51
2020/12/05 02:31:06;;;;;;;12.63;8.25;;;3.30;90.80;;;;;;5015262;28;20502;-51
2020/12/05 02:33:31;;;;;;;12.38;8.38;;;3.30;90.80;;;;;;5021983;28;20498;-53
2020/12/05 02:36:17;;;;;;;12.43;8.82;;;3.30;90.70;;;;;;5009665;28;20050;-50
2020/12/05 02:39:10;;;;;;;11.52;8.52;;;3.20;90.70;;;;;;4984409;28;20064;-51
2020/12/05 02:41:40;;;;;;;13.80;8.65;;;3.20;90.70;;;;;;5013440;28;20494;-52
2020/12/05 02:44:06;;;;;;;12.05;8.55;;;3.20;90.80;;;;;;5020530;28;20041;-53
2020/12/05 02:46:32;;;;;;;12.57;9.20;;;3.20;90.60;;;;;;5015004;28;20037;-53
2020/12/05 02:48:58;;;;;;;13.10;8.35;;;3.20;90.80;;;;;;5014633;28;20062;-51
2020/12/05 02:51:44;;;;;;;11.95;8.27;;;3.20;90.80;;;;;;4996570;28;20545;-53
2020/12/05 02:54:09;;;;;;;11.85;7.65;;;3.10;90.90;;;;;;5010347;28;20038;-53
2020/12/05 02:56:35;;;;;;;12.73;7.60;;;3.20;90.90;;;;;;5016392;28;20041;-51
2020/12/05 02:59:01;;;;;;;12.77;8.02;;;3.20;90.70;;;;;;5013298;28;20434;-52
2020/12/05 03:01:26;;;;;;;13.52;7.93;;;3.20;90.90;;;;;;5012605;28;20125;-52
2020/12/05 03:03:52;;;;;;;11.32;8.02;;;3.20;90.90;;;;;;5010966;28;20042;-55
2020/12/05 03:06:17;;;;;;;12.75;8.68;;;3.10;90.90;;;;;;5013581;28;20046;-55
2020/12/05 03:08:43;;;;;;;15.52;9.88;;;3.10;91.00;;;;;;5010843;28;20046;-55
2020/12/05 03:11:09;;;;;;;13.18;9.18;;;3.20;91.20;;;;;;5013664;28;20535;-54
2020/12/05 03:13:34;;;;;;;13.27;9.77;;;3.20;91.10;;;;;;5020099;28;20041;-53
2020/12/05 03:16:00;;;;;;;11.75;8.57;;;3.20;91.20;;;;;;5012853;28;20506;-53
2020/12/05 03:18:25;;;;;;;12.23;7.95;;;3.30;91.20;;;;;;5017811;28;20037;-50
2020/12/05 03:20:51;;;;;;;10.85;7.97;;;3.30;91.00;;;;;;5020639;28;20116;-53
2020/12/05 03:23:17;;;;;;;13.63;8.73;;;3.20;90.90;;;;;;5003065;28;20041;-52
2020/12/05 03:26:02;;;;;;;12.48;9.65;;;3.20;91.00;;;;;;5009399;28;20049;-54
2020/12/05 03:28:28;;;;;;;14.38;9.35;;;3.30;91.10;;;;;;5023917;28;20038;-53
2020/12/05 03:31:25;;;;;;;12.48;8.50;;;3.30;91.10;;;;;;5008508;28;20057;-52
2020/12/05 03:33:51;;;;;;;12.45;8.85;;;3.30;91.10;;;;;;5032598;28;20128;-53
2020/12/05 03:36:37;;;;;;;11.38;8.80;;;3.30;91.10;;;;;;5005401;28;20164;-50
2020/12/05 03:39:03;;;;;;;12.00;8.35;;;3.30;91.10;;;;;;5034156;28;20065;-49
2020/12/05 03:41:28;;;;;;;12.63;8.45;;;3.20;91.00;;;;;;5029069;28;20128;-50
2020/12/05 03:44:14;;;;;;;11.05;7.85;;;3.20;90.90;;;;;;5010172;28;20041;-51
2020/12/05 03:47:00;;;;;;;11.77;8.00;;;3.20;90.80;;;;;;5000690;28;20081;-51
2020/12/05 03:49:46;;;;;;;15.73;9.48;;;3.10;90.80;;;;;;5006847;28;20050;-52
2020/12/05 03:52:11;;;;;;;14.63;9.32;;;3.10;91.00;;;;;;5019538;28;20100;-51
2020/12/05 03:54:37;;;;;;;14.05;9.13;;;3.10;91.00;;;;;;5015616;28;20033;-51
2020/12/05 03:57:03;;;;;;;15.98;10.05;;;3.10;91.20;;;;;;5024615;28;20047;-49
2020/12/05 03:59:28;;;;;;;12.20;8.75;;;3.10;91.20;;;;;;5019855;28;20077;-49
2020/12/05 04:01:54;;;;;;;12.70;8.65;;;3.00;91.30;;;;;;5018078;28;20508;-51
2020/12/05 04:04:20;;;;;;;12.70;8.32;;;3.10;91.20;;;;;;5013505;28;20099;-52
2020/12/05 04:07:05;;;;;;;15.35;8.90;;;3.10;91.10;;;;;;5009256;28;20520;-50
2020/12/05 04:09:31;;;;;;;12.50;8.85;;;3.00;91.10;;;;;;5019464;28;20140;-53
2020/12/05 04:11:56;;;;;;;12.85;9.10;;;3.00;91.10;;;;;;5027858;28;20504;-51
2020/12/05 04:14:22;;;;;;;13.25;9.05;;;3.10;91.10;;;;;;5020037;28;20053;-53
2020/12/05 04:16:47;;;;;;;12.52;9.23;;;3.10;91.20;;;;;;5026064;28;20038;-52
2020/12/05 04:19:13;;;;;;;14.30;9.38;;;3.10;91.10;;;;;;5021597;28;20045;-50
2020/12/05 04:21:39;;;;;;;13.65;9.80;;;3.10;91.20;;;;;;5030335;28;20038;-53
2020/12/05 04:24:05;;;;;;;13.55;9.48;;;3.10;91.20;;;;;;5032557;28;20544;-49
2020/12/05 04:26:30;;;;;;;14.88;9.95;;;3.00;91.20;;;;;;5027469;28;20037;-52
2020/12/05 04:28:56;;;;;;;13.68;9.50;;;3.10;91.20;;;;;;5013717;28;20033;-55
2020/12/05 04:31:22;;;;;;;13.07;9.68;;;3.00;91.20;;;;;;5025112;28;20040;-51
2020/12/05 04:33:47;;;;;;;12.55;9.65;;;3.10;91.40;;;;;;5000495;28;20112;-51
2020/12/05 04:36:33;;;;;;;13.80;10.18;;;3.10;91.40;;;;;;5007494;28;20042;-53
2020/12/05 04:38:58;;;;;;;15.00;10.60;;;3.10;91.30;;;;;;5014761;28;20099;-52
2020/12/05 04:41:24;;;;;;;16.00;10.30;;;3.10;91.30;;;;;;5022984;28;20042;-52
2020/12/05 04:43:50;;;;;;;14.40;10.30;;;3.10;91.40;;;;;;5024533;28;20033;-52
2020/12/05 04:46:16;;;;;;;13.95;10.55;;;3.20;91.40;;;;;;5026015;28;20044;-50
2020/12/05 04:48:43;;;;;;;14.13;9.40;;;3.10;91.30;;;;;;5025369;28;20053;-56
2020/12/05 04:51:35;;;;;;;10.85;8.57;;;3.10;91.30;;;;;;5007344;28;20460;-53
2020/12/05 04:54:03;;;;;;;11.60;7.25;;;3.10;91.20;;;;;;5018405;28;20057;-52
2020/12/05 04:56:35;;;;;;;11.85;8.10;;;3.10;90.90;;;;;;5017780;28;20048;-52
2020/12/05 04:59:07;;;;;;;11.45;7.80;;;3.00;90.80;;;;;;5023931;28;20037;-51
2020/12/05 05:01:55;;;;;;;14.27;7.82;;;3.00;90.90;;;;;;5006779;28;20037;-53
2020/12/05 05:04:24;;;;;;;11.30;8.80;;;2.90;90.90;;;;;;5029114;28;21702;-54
2020/12/05 05:06:50;;;;;;;13.65;9.48;;;2.90;91.10;;;;;;5011596;28;20069;-49
2020/12/05 05:09:16;;;;;;;15.05;10.55;;;2.90;91.30;;;;;;5026592;28;20076;-52
2020/12/05 05:11:54;;;;;;;14.50;10.32;;;2.90;91.30;;;;;;5017531;28;20495;-53
2020/12/05 05:14:40;;;;;;;15.13;10.55;;;2.90;91.30;;;;;;5002137;28;20398;-50
2020/12/05 05:17:25;;;;;;;14.95;10.18;;;2.90;91.30;;;;;;5008039;28;20049;-52
2020/12/05 05:20:19;;;;;;;14.35;10.00;;;2.90;91.30;;;;;;5010661;28;20045;-54
2020/12/05 05:22:46;;;;;;;14.35;9.95;;;2.90;91.40;;;;;;5013558;28;20486;-50
2020/12/05 05:25:46;;;;;;;15.60;9.95;;;2.90;91.50;;;;;;5013823;28;20080;-50
2020/12/05 05:28:20;;;;;;;15.20;10.43;;;2.90;91.50;;;;;;5025205;28;20045;-53
2020/12/05 05:31:17;;;;;;;14.68;10.48;;;2.90;91.50;;;;;;5023797;28;20049;-52
2020/12/05 05:33:48;;;;;;;13.88;9.75;;;2.90;91.50;;;;;;5030244;28;20037;-50
2020/12/05 05:36:23;;;;;;;12.00;9.13;;;2.90;91.50;;;;;;5012685;28;20042;-50
2020/12/05 05:39:12;;;;;;;9.85;8.07;;;2.90;91.50;;;;;;5005977;28;20052;-52
2020/12/05 05:41:39;;;;;;;13.15;9.90;;;3.00;91.50;;;;;;5013920;28;20045;-51
2020/12/05 05:44:07;;;;;;;16.15;10.52;;;3.00;91.50;;;;;;5016919;28;20061;-52
2020/12/05 05:46:53;;;;;;;15.13;10.10;;;3.00;91.50;;;;;;5002822;28;20478;-50
2020/12/05 05:49:31;;;;;;;15.18;10.43;;;3.00;91.60;;;;;;5028745;28;20565;-51
2020/12/05 05:52:02;;;;;;;15.80;10.32;;;3.00;91.50;;;;;;5013071;28;20115;-50
2020/12/05 05:54:54;;;;;;;14.90;9.80;;;3.00;91.40;;;;;;5004080;28;20046;-53
2020/12/05 05:57:19;;;;;;;15.00;10.85;;;3.00;91.60;;;;;;5017378;28;20045;-51
2020/12/05 05:59:45;;;;;;;18.98;11.00;;;3.00;91.90;;;;;;5000219;28;20406;-49
2020/12/05 06:02:13;;;;;;;14.35;10.80;;;3.00;91.80;;;;;;5023075;28;20542;-52
2020/12/05 06:04:59;;;;;;;13.82;9.50;;;3.00;91.70;;;;;;5011675;28;20493;-53
2020/12/05 06:07:26;;;;;;;15.55;10.00;;;3.10;91.80;;;;;;5016989;28;20045;-53
2020/12/05 06:09:55;;;;;;;16.15;11.60;;;3.10;91.70;;;;;;5018413;28;20042;-52
2020/12/05 06:12:40;;;;;;;14.35;10.43;;;3.10;91.70;;;;;;5013526;28;20055;-53
2020/12/05 06:15:26;;;;;;;14.88;10.82;;;3.10;91.70;;;;;;5023387;28;20168;-50
2020/12/05 06:17:58;;;;;;;13.95;10.45;;;3.20;91.80;;;;;;5017567;28;20769;-51
2020/12/05 06:20:28;;;;;;;12.73;9.10;;;3.20;91.70;;;;;;5020432;28;20064;-50
2020/12/05 06:23:02;;;;;;;13.85;10.50;;;3.20;91.60;;;;;;4998379;28;20105;-54
2020/12/05 06:25:29;;;;;;;15.93;10.80;;;3.20;91.70;;;;;;4996135;28;20065;-49
2020/12/05 06:28:03;;;;;;;16.38;10.70;;;3.20;91.70;;;;;;5020108;28;20444;-51
2020/12/05 06:30:30;;;;;;;14.25;10.73;;;3.20;91.70;;;;;;5018950;28;20396;-51
2020/12/05 06:33:45;;;;;;;14.55;11.40;;;3.20;91.80;;;;;;5006710;28;20088;-52
2020/12/05 06:36:26;;;;;;;16.63;11.52;;;3.20;91.80;;;;;;5012943;28;20033;-53
2020/12/05 06:39:05;;;;;;;13.30;9.98;;;3.20;91.80;;;;;;5015619;28;20376;-51
2020/12/05 06:41:35;;;;;;;13.30;9.30;;;3.20;91.80;;;;;;5015863;28;20128;-50
2020/12/05 06:44:22;;;;;;;13.40;9.05;;;3.20;91.70;;;;;;5014268;28;20385;-50
2020/12/05 06:46:55;;;;;;;11.35;8.48;;;3.20;91.50;;;;;;5004164;28;20493;-50
2020/12/05 06:49:39;;;;;;;12.13;8.55;;;3.20;91.50;;;;;;5016259;28;20057;-50
2020/12/05 06:52:23;;;;;;;14.65;7.95;;;3.10;91.40;;;;;;5019837;28;20037;-52
2020/12/05 06:54:52;;;;;;;11.95;8.57;;;3.10;91.40;;;;;;5022773;28;20038;-51
2020/12/05 06:57:41;;;;;;;11.30;8.88;;;3.00;91.70;;;;;;5000871;28;20529;-52
2020/12/05 07:00:23;;;;;;;17.70;10.50;;;3.00;91.40;;;;;;5027033;28;20041;-53
2020/12/05 07:02:54;;;;;;;14.90;10.38;;;3.00;91.60;;;;;;5012456;28;20127;-50
2020/12/05 07:05:22;;;;;;;13.75;10.00;;;3.10;91.60;;;;;;5020737;28;20459;-53
2020/12/05 07:07:54;;;;;;;13.43;10.20;;;3.00;91.60;;;;;;5013966;28;20037;-49
2020/12/05 07:10:47;;;;;;;18.02;11.45;;;3.00;91.60;;;;;;5035505;28;20033;-50
2020/12/05 07:13:18;;;;;;;17.65;11.23;;;3.00;91.80;;;;;;5003255;28;20060;-49
2020/12/05 07:15:45;;;;;;;14.23;11.02;;;3.00;91.80;;;;;;5015119;28;20045;-52
2020/12/05 07:18:23;;;;;;;13.98;10.77;;;3.10;91.80;;;;;;5022022;28;20042;-52
2020/12/05 07:21:09;;;;;;;13.35;10.70;;;3.10;91.80;;;;;;5005772;28;20042;-51
2020/12/05 07:23:36;;;;;;;15.15;10.82;;;3.10;91.80;;;;;;5034501;28;20037;-51
2020/12/05 07:26:03;;;;;;;13.65;10.75;;;3.20;91.80;;;;;;5026640;28;20041;-53
2020/12/05 07:28:51;;;;;;;15.65;11.50;;;3.20;91.80;;;;;;5013191;28;20524;-54
2020/12/05 07:31:18;;;;;;;14.80;11.00;;;3.20;91.80;;;;;;5017612;28;20054;-50
2020/12/05 07:34:05;;;;;;;14.48;11.00;;;3.20;91.90;;;;;;5016849;28;20054;-54
2020/12/05 07:36:38;;;;;;;15.65;10.25;;;3.20;91.80;;;;;;5007056;28;20132;-50
2020/12/05 07:39:24;;;;;;;11.65;8.77;;;3.20;91.90;;;;;;5009472;28;20038;-50
2020/12/05 07:42:10;;;;;;;11.82;9.18;;;3.20;91.70;;;;;;5016373;28;20084;-54
2020/12/05 07:44:35;;;;;;;14.73;10.40;;;3.20;91.60;;;;;;5026031;28;20042;-54
2020/12/05 07:47:22;;;;;;;14.30;10.85;;;3.10;91.50;;;;;;5013069;28;20494;-53
2020/12/05 07:49:52;;;;;;;13.80;9.77;;;3.00;91.50;;;;;;5024107;28;20057;-53
2020/12/05 07:52:20;;;;;;;17.92;11.50;;;3.00;91.60;;;;;;5012047;28;20046;-54
2020/12/05 07:55:00;;;;;;;16.52;10.85;;;3.00;91.70;;;;;;5021318;28;20398;-50
2020/12/05 07:57:52;;;;;;;16.98;12.10;;;3.10;91.80;;;;;;4997309;28;20417;-53
2020/12/05 08:00:20;;;;;;;19.45;12.05;;;3.10;91.90;;;;;;5030936;28;20052;-53
2020/12/05 08:03:05;;;;;;;16.20;11.48;;;3.20;91.90;;;;;;5034654;28;20038;-52
2020/12/05 08:05:53;;;;;;;16.27;10.88;;;3.20;91.90;;;;;;5023873;28;20046;-53
2020/12/05 08:08:19;;;;;;;18.63;15.27;;;3.20;91.90;;;;;;5022357;28;20059;-50
2020/12/05 08:11:05;;;;;;;18.17;13.57;;;3.30;91.90;;;;;;5014772;28;20068;-50
2020/12/05 08:13:51;;;;;;;18.98;13.48;;;3.30;91.90;;;;;;5006089;28;20132;-50
2020/12/05 08:16:17;;;;;;;27.95;16.38;;;3.30;92.00;;;;;;5024716;28;20077;-49
2020/12/05 08:18:43;;;;;;;26.58;17.70;;;3.40;92.00;;;;;;5015194;28;20037;-50
2020/12/05 08:21:29;;;;;;;27.77;16.88;;;3.40;92.00;;;;;;5011062;28;20073;-53
2020/12/05 08:24:06;;;;;;;23.83;15.35;;;3.40;92.00;;;;;;5015846;28;20042;-50
2020/12/05 08:26:32;;;;;;;20.13;14.48;;;3.40;92.00;;;;;;5020797;28;20153;-54
2020/12/05 08:28:59;;;;;;;18.10;13.25;;;3.60;92.10;;;;;;5030735;28;20045;-51
2020/12/05 08:31:25;;;;;;;18.73;13.05;;;3.60;91.90;;;;;;5032641;28;20132;-51
2020/12/05 08:33:51;;;;;;;16.50;11.48;;;3.60;91.80;;;;;;5032770;28;20047;-50
2020/12/05 08:36:31;;;;;;;19.92;11.48;;;3.60;91.90;;;;;;5016242;28;20050;-50
2020/12/05 08:39:19;;;;;;;19.23;12.48;;;3.60;92.00;;;;;;5010208;28;20065;-50
2020/12/05 08:41:50;;;;;;;16.10;12.48;;;3.60;92.10;;;;;;5015428;28;20478;-52
2020/12/05 08:44:35;;;;;;;18.00;13.07;;;3.50;92.10;;;;;;5003453;28;20045;-50
2020/12/05 08:47:08;;;;;;;19.13;13.65;;;3.60;92.20;;;;;;5013532;28;20056;-51
2020/12/05 08:49:53;;;;;;;19.45;13.23;;;3.60;92.20;;;;;;5009909;28;20081;-53
2020/12/05 08:52:40;;;;;;;16.83;11.98;;;3.70;92.30;;;;;;4999550;28;20088;-50
2020/12/05 08:55:27;;;;;;;17.60;12.25;;;3.70;92.20;;;;;;4998531;28;20133;-51
2020/12/05 08:58:07;;;;;;;25.48;14.38;;;3.70;92.10;;;;;;5014733;28;20116;-52
2020/12/05 09:00:35;;;;;;;22.45;14.27;;;3.80;92.20;;;;;;5013878;28;20092;-52
2020/12/05 09:03:22;;;;;;;25.17;15.80;;;3.80;92.10;;;;;;5000028;28;20049;-49
2020/12/05 09:05:50;;;;;;;27.65;15.93;;;3.90;92.10;;;;;;5024543;28;20096;-49
2020/12/05 09:08:21;;;;;;;26.42;15.55;;;3.90;92.10;;;;;;5018446;28;20041;-49
2020/12/05 09:10:48;;;;;;;18.90;14.60;;;3.90;92.10;;;;;;5015447;28;20056;-52
2020/12/05 09:13:14;;;;;;;17.63;14.10;;;4.00;92.00;;;;;;5014392;28;20049;-52
2020/12/05 09:16:02;;;;;;;21.00;14.85;;;4.00;91.90;;;;;;5005433;28;20081;-49
2020/12/05 09:18:50;;;;;;;18.67;14.35;;;4.00;92.00;;;;;;5017355;28;20042;-49
2020/12/05 09:21:18;;;;;;;24.73;16.55;;;4.00;92.00;;;;;;5016683;28;20121;-49
2020/12/05 09:24:05;;;;;;;27.15;20.15;;;4.00;92.00;;;;;;4999414;28;20042;-51
2020/12/05 09:26:34;;;;;;;29.30;19.85;;;4.00;91.90;;;;;;5021762;28;20052;-50
2020/12/05 09:29:20;;;;;;;24.90;17.88;;;4.00;92.00;;;;;;5012806;28;20065;-50
2020/12/05 09:31:51;;;;;;;27.42;20.05;;;4.10;91.90;;;;;;5017620;28;20041;-49
2020/12/05 09:34:30;;;;;;;25.88;18.98;;;4.10;92.00;;;;;;5025345;28;20091;-49
2020/12/05 09:36:55;;;;;;;29.02;20.40;;;4.10;92.00;;;;;;5016204;28;20046;-49
2020/12/05 09:39:41;;;;;;;27.80;20.10;;;4.20;92.20;;;;;;4997710;28;20042;-49
2020/12/05 09:42:07;;;;;;;32.55;19.38;;;4.20;92.20;;;;;;5012808;28;20148;-49
2020/12/05 09:44:33;;;;;;;27.35;18.80;;;4.30;92.10;;;;;;5017238;28;20486;-49
2020/12/05 09:47:02;;;;;;;25.50;19.80;;;4.30;92.00;;;;;;5011911;28;20052;-49
2020/12/05 09:49:28;;;;;;;26.23;18.80;;;4.40;92.00;;;;;;5015753;28;20117;-50
2020/12/05 09:51:54;;;;;;;34.53;19.10;;;4.40;92.00;;;;;;5017697;28;20046;-51
2020/12/05 09:54:20;;;;;;;23.10;15.95;;;4.50;91.90;;;;;;5016691;28;20049;-52
2020/12/05 09:56:50;;;;;;;22.23;14.90;;;4.70;91.80;;;;;;5013474;28;20033;-53
2020/12/05 09:59:15;;;;;;;18.83;13.70;;;4.80;91.50;;;;;;5016884;28;20057;-53
2020/12/05 10:02:05;;;;;;;19.92;13.15;;;4.90;91.30;;;;;;5011472;28;20545;-53
2020/12/05 10:04:31;;;;;;;19.58;13.52;;;5.00;91.30;;;;;;5025430;28;20045;-49
2020/12/05 10:07:17;;;;;;;16.90;11.68;;;5.10;91.20;;;;;;5002761;28;20144;-51
2020/12/05 10:09:43;;;;;;;17.73;12.45;;;5.10;90.90;;;;;;5016067;28;20164;-52
2020/12/05 10:12:09;;;;;;;18.60;10.60;;;5.20;90.80;;;;;;5015185;28;20056;-52
2020/12/05 10:14:54;;;;;;;21.15;12.07;;;5.30;90.40;;;;;;4999889;28;20053;-52
2020/12/05 10:17:20;;;;;;;16.73;10.73;;;5.30;90.30;;;;;;5021692;28;20091;-50
2020/12/05 10:19:46;;;;;;;16.05;11.43;;;5.30;90.20;;;;;;5017376;28;20057;-49
2020/12/05 10:22:12;;;;;;;16.38;11.13;;;5.40;90.10;;;;;;5014649;28;20407;-50
2020/12/05 10:24:58;;;;;;;17.50;11.20;;;5.40;90.10;;;;;;5015724;28;20061;-49
2020/12/05 10:27:25;;;;;;;15.68;11.15;;;5.40;89.70;;;;;;5012032;28;20049;-49
2020/12/05 10:29:51;;;;;;;17.08;11.63;;;5.40;89.60;;;;;;5012939;28;20102;-52
2020/12/05 10:32:17;;;;;;;15.88;11.40;;;5.40;89.90;;;;;;5010905;28;20081;-52
2020/12/05 10:34:43;;;;;;;16.25;11.63;;;5.40;89.80;;;;;;5028552;28;20048;-53
2020/12/05 10:37:09;;;;;;;17.27;12.07;;;5.40;89.70;;;;;;5003860;28;20046;-52
2020/12/05 10:39:34;;;;;;;17.25;11.45;;;5.40;89.90;;;;;;5014691;28;20029;-49
2020/12/05 10:42:20;;;;;;;17.23;10.60;;;5.40;89.80;;;;;;5006222;28;20056;-51
2020/12/05 10:45:08;;;;;;;14.65;9.88;;;5.50;89.60;;;;;;4989499;28;20034;-49
2020/12/05 10:47:34;;;;;;;14.38;9.65;;;5.50;89.50;;;;;;5013808;28;20536;-50
2020/12/05 10:50:20;;;;;;;13.10;9.40;;;5.50;89.50;;;;;;5002047;28;20112;-52
2020/12/05 10:52:45;;;;;;;15.52;9.60;;;5.50;88.90;;;;;;4999584;28;20037;-50
2020/12/05 10:55:11;;;;;;;14.23;9.48;;;5.70;88.70;;;;;;5016797;28;20034;-49
2020/12/05 10:57:37;;;;;;;13.55;9.32;;;5.70;88.80;;;;;;5025017;28;20064;-51
2020/12/05 11:00:23;;;;;;;13.05;8.18;;;5.70;88.90;;;;;;5013493;28;20076;-50
2020/12/05 11:02:49;;;;;;;13.02;8.75;;;5.70;88.20;;;;;;4994778;28;20041;-51
2020/12/05 11:05:35;;;;;;;14.13;8.48;;;5.70;88.20;;;;;;5007645;28;20076;-50
2020/12/05 11:08:01;;;;;;;11.10;8.50;;;5.80;88.30;;;;;;5015123;28;20042;-54
2020/12/05 11:10:26;;;;;;;12.93;8.60;;;5.80;87.90;;;;;;5025005;28;20045;-54
2020/12/05 11:12:52;;;;;;;13.57;8.77;;;5.80;88.20;;;;;;5024966;28;20056;-53
2020/12/05 11:15:39;;;;;;;13.10;8.32;;;5.80;88.40;;;;;;5007619;28;20046;-54
2020/12/05 11:18:05;;;;;;;12.63;8.63;;;5.80;88.20;;;;;;5011032;28;20084;-53
2020/12/05 11:20:31;;;;;;;11.52;8.00;;;5.80;88.30;;;;;;5023278;28;20094;-55
2020/12/05 11:22:57;;;;;;;14.35;8.98;;;5.80;88.00;;;;;;5032453;28;20120;-52
2020/12/05 11:25:22;;;;;;;11.25;8.27;;;5.90;87.60;;;;;;5011128;28;20051;-54
2020/12/05 11:27:48;;;;;;;13.02;8.07;;;5.90;88.60;;;;;;5026510;28;20490;-54
2020/12/05 11:30:34;;;;;;;12.27;7.82;;;6.00;87.90;;;;;;4999702;28;20153;-52
2020/12/05 11:33:19;;;;;;;11.13;7.72;;;6.00;87.70;;;;;;5007888;28;20050;-54
2020/12/05 11:36:06;;;;;;;10.30;7.25;;;6.10;87.10;;;;;;5006025;28;20502;-53
2020/12/05 11:38:32;;;;;;;11.93;7.63;;;6.20;86.50;;;;;;5026322;28;20130;-55
2020/12/05 11:40:57;;;;;;;10.23;6.80;;;6.10;86.80;;;;;;5015363;28;20042;-54
2020/12/05 11:43:23;;;;;;;10.88;7.35;;;6.10;86.60;;;;;;5013944;28;20459;-54
2020/12/05 11:46:09;;;;;;;11.13;6.85;;;6.10;86.60;;;;;;5011199;28;20043;-54
2020/12/05 11:48:35;;;;;;;9.68;6.40;;;6.10;86.40;;;;;;5029766;28;20484;-53
2020/12/05 11:51:28;;;;;;;11.50;6.65;;;6.10;85.30;;;;;;5010506;28;20076;-52
2020/12/05 11:53:54;;;;;;;8.98;6.75;;;6.10;85.00;;;;;;5027258;28;20038;-52
2020/12/05 11:56:25;;;;;;;9.57;7.18;;;6.10;85.30;;;;;;5029585;28;20081;-53
2020/12/05 11:59:10;;;;;;;13.20;7.65;;;6.00;85.70;;;;;;5002138;28;20111;-51
2020/12/05 12:01:41;;;;;;;8.75;6.55;;;6.00;85.70;;;;;;5015635;28;20060;-54
2020/12/05 12:04:07;;;;;;;10.65;7.22;;;6.10;85.30;;;;;;5032518;28;20034;-53
2020/12/05 12:06:32;;;;;;;11.50;7.35;;;6.10;85.30;;;;;;5034128;28;20056;-51
2020/12/05 12:08:58;;;;;;;10.68;6.72;;;6.10;85.50;;;;;;5033620;28;20033;-50
2020/12/05 12:11:44;;;;;;;9.32;5.88;;;6.20;85.00;;;;;;5019259;28;20216;-53
2020/12/05 12:14:09;;;;;;;8.57;6.20;;;6.10;83.70;;;;;;5015821;28;20112;-53
2020/12/05 12:16:35;;;;;;;10.25;6.13;;;6.20;84.00;;;;;;5025577;28;20041;-50
2020/12/05 12:19:01;;;;;;;8.95;6.00;;;6.20;84.10;;;;;;5028599;28;20140;-53
2020/12/05 12:21:47;;;;;;;8.57;6.00;;;6.20;83.50;;;;;;5020277;28;20095;-50
2020/12/05 12:24:13;;;;;;;8.70;6.13;;;6.20;83.20;;;;;;5019481;28;20037;-50
2020/12/05 12:26:58;;;;;;;10.63;6.32;;;6.10;82.30;;;;;;5009531;28;20410;-52
2020/12/05 12:29:24;;;;;;;9.15;6.10;;;6.10;83.20;;;;;;5014149;28;20042;-50
2020/12/05 12:32:10;;;;;;;8.80;6.00;;;6.00;83.20;;;;;;4998508;28;20132;-50
2020/12/05 12:34:36;;;;;;;10.70;6.70;;;6.00;83.20;;;;;;5018236;28;20057;-50
2020/12/05 12:37:04;;;;;;;10.40;6.30;;;6.00;82.50;;;;;;5018133;28;20049;-51
2020/12/05 12:39:30;;;;;;;10.15;6.72;;;6.00;82.90;;;;;;5015771;28;20046;-50
2020/12/05 12:41:56;;;;;;;8.88;6.25;;;6.00;83.00;;;;;;5021239;28;20045;-53
2020/12/05 12:44:42;;;;;;;8.73;6.20;;;6.00;82.50;;;;;;5003889;28;20072;-53
2020/12/05 12:47:25;;;;;;;8.00;5.88;;;6.00;83.00;;;;;;5021869;28;20524;-51
2020/12/05 12:49:50;;;;;;;9.18;5.85;;;5.90;83.20;;;;;;5000398;28;20046;-53
2020/12/05 12:52:17;;;;;;;8.90;6.07;;;5.90;83.10;;;;;;5018094;28;20057;-49
2020/12/05 12:54:43;;;;;;;9.48;6.65;;;6.00;82.90;;;;;;5014642;28;20037;-53
2020/12/05 12:57:33;;;;;;;10.13;7.22;;;6.00;82.90;;;;;;5001258;28;20042;-49
2020/12/05 12:59:59;;;;;;;9.50;6.30;;;6.00;83.60;;;;;;5021149;28;20039;-49
2020/12/05 13:02:25;;;;;;;11.00;6.22;;;6.10;83.50;;;;;;5020992;28;20132;-53
2020/12/05 13:04:51;;;;;;;10.32;6.57;;;6.20;83.50;;;;;;5023520;28;20026;-53
2020/12/05 13:07:17;;;;;;;9.90;6.68;;;6.30;82.50;;;;;;5028963;28;20099;-53
2020/12/05 13:09:44;;;;;;;9.40;6.55;;;6.40;82.50;;;;;;5011356;28;20037;-53
2020/12/05 13:12:10;;;;;;;10.15;6.68;;;6.40;82.60;;;;;;5025907;28;20041;-49